Viroqua, WI (54665)

10:46 AM CDT on September 04, 2015 (GMT -0500)
Faith Farms Viroqua | | Change Station
CLOSE
Current Station
Personal Weather Station
Location: Viroqua, WI
Elevation: 1217 ft
Nearby Weather Stations

Elev 1217 ft 43.61 °N, 90.98 °W | Updated 1 minute ago

Partly Cloudy
Partly Cloudy
77.2 °F
Feels Like 79 °F
N
4.0
Wind Variable Wind from WSW
Gusts 6.0 mph

Today
High -- | Low -- °F
--% Chance of Precip.
Yesterday
High -- | Low -- °F
Precip. -- in
6:30 AM 7:34 PM
Waning Gibbous, 58% visible
Pressure 30.03 in
Visibility 10.0 miles
Clouds Scattered Clouds 2600 ft
Scattered Clouds 4900 ft
Scattered Clouds 10000 ft
Heat Index 79 °F
Dew Point 72 °F
Humidity 83%
Rainfall 0.00 in
Snow Depth Not available.
UV 4 out of 12
Pollen 8.20 out of 12
Air Quality Not available.
Flu Activity Not available.
METAR KCMY 041535Z AUTO 09007KT 10SM SCT026 SCT049 SCT100 25/18 A3003 RMK AO2 T02510177
Pressure 30.03 in
Visibility 10.0 miles
Clouds Scattered Clouds 2600 ft
Scattered Clouds 4900 ft
Scattered Clouds 10000 ft
Heat Index 79 °F
Dew Point 72 °F
Humidity 83%
Rainfall 0.00 in
Snow Depth Not available.
UV 4 out of 12
Pollen 8.20 out of 12
Air Quality Not available.
Flu Activity Not available.
METAR KCMY 041535Z AUTO 09007KT 10SM SCT026 SCT049 SCT100 25/18 A3003 RMK AO2 T02510177

10-Day Weather Forecast

×

Almanac

Astronomy

Sep. 04, 2015 Rise Set
Actual Time
Civil Twilight
Nautical Twilight
Astronomical Twilight
Moon
Length of Visible Light
Length of Day
Tomorrow will be .
, % of the Moon is Illuminated

Today's Extremes

State Highs State Lows

Community

WunderPhotos

Upload Photos

1,852,197 photos uploaded!

WunderBlogs® & News

Nearby

Air Quality

  Air Quality AQ Index Pollutant
Not available.

Snow Depth

Station Depth Elevation

Earthquake Activity

City Distance Mag. Time & Date
Minimum magnitude displayed is 2.5.

Coastal Water Temperatures

Place Temperature

Stations

Nearby Weather Stations

Station Location Temp. Windchill Dew Point Humidity Wind Precip. Elev Updated Type